createdAt,value
2019-05-21T00:01:58.628Z,75.43
2019-05-21T00:06:54.549Z,85.37
2019-05-21T00:11:50.478Z,73.20
2019-05-21T00:16:46.399Z,84.63
2019-05-21T00:21:42.325Z,71.53
2019-05-21T00:26:38.388Z,64.63
2019-05-21T00:32:11.807Z,77.90
2019-05-21T00:37:45.483Z,72.63
2019-05-21T00:42:43.005Z,62.47
2019-05-21T00:47:39.161Z,82.50
2019-05-21T00:52:35.081Z,68.23
2019-05-21T00:57:31.009Z,71.00
2019-05-21T01:02:26.968Z,64.63
2019-05-21T01:07:22.941Z,39.23
2019-05-21T01:12:18.914Z,76.40
2019-05-21T01:17:14.845Z,51.97
2019-05-21T01:22:10.778Z,69.53
2019-05-21T01:27:06.696Z,67.10
2019-05-21T01:32:03.289Z,49.40
2019-05-21T01:36:59.451Z,61.57
2019-05-21T01:41:55.377Z,59.47
2019-05-21T01:46:51.327Z,56.17
2019-05-21T01:51:47.250Z,54.57
2019-05-21T01:56:43.249Z,51.47
2019-05-21T02:01:39.146Z,59.50
2019-05-21T02:06:35.072Z,49.63
2019-05-21T02:11:30.992Z,41.83
2019-05-21T02:16:26.910Z,37.63
2019-05-21T02:21:22.839Z,42.97
2019-05-21T02:26:18.755Z,38.60
2019-05-21T02:31:14.696Z,41.73
2019-05-21T02:36:10.632Z,42.80
2019-05-21T02:41:06.657Z,29.73
2019-05-21T02:46:02.740Z,44.23
2019-05-21T02:50:58.647Z,41.77
2019-05-21T02:55:54.582Z,38.33
2019-05-21T03:00:52.418Z,45.60
2019-05-21T03:05:48.442Z,52.93
2019-05-21T03:10:44.564Z,32.60
2019-05-21T03:15:40.473Z,55.03
2019-05-21T03:20:36.429Z,54.40
2019-05-21T03:25:32.348Z,50.87
2019-05-21T03:30:28.376Z,50.63
2019-05-21T03:35:24.293Z,44.63
2019-05-21T03:40:20.642Z,46.80
2019-05-21T03:45:16.796Z,50.23
2019-05-21T03:50:12.822Z,38.33
2019-05-21T03:55:08.832Z,47.93
2019-05-21T04:00:08.983Z,40.97
2019-05-21T04:05:05.100Z,44.67
2019-05-21T04:10:01.044Z,41.13
2019-05-21T04:15:07.861Z,54.60
2019-05-21T04:20:05.410Z,53.10
2019-05-21T04:25:01.478Z,46.97
2019-05-21T04:29:57.393Z,54.13
2019-05-21T04:34:53.318Z,59.63
2019-05-21T04:39:49.238Z,57.60
2019-05-21T04:44:45.190Z,66.30
2019-05-21T04:50:05.874Z,67.83
2019-05-21T04:55:03.204Z,71.07
2019-05-21T04:59:59.152Z,72.33
2019-05-21T05:04:55.079Z,79.37
2019-05-21T05:09:56.736Z,107.23
2019-05-21T05:14:52.819Z,88.30
2019-05-21T05:19:48.750Z,88.43
2019-05-21T05:24:44.638Z,106.57
2019-05-21T05:29:40.566Z,96.60
2019-05-21T05:34:36.491Z,93.60
2019-05-21T05:39:33.165Z,98.77
2019-05-21T05:44:29.177Z,97.50
2019-05-21T05:49:33.071Z,80.17
2019-05-21T05:54:28.996Z,95.70
2019-05-21T05:59:24.922Z,88.00
2019-05-21T06:04:21.005Z,98.83
2019-05-21T06:09:17.593Z,94.57
2019-05-21T06:14:13.580Z,92.37
2019-05-21T06:19:09.515Z,81.23
2019-05-21T06:24:05.450Z,66.53
2019-05-21T06:29:01.376Z,88.87
2019-05-21T06:33:57.310Z,88.33
2019-05-21T06:38:57.137Z,89.40
2019-05-21T06:43:53.201Z,83.10
2019-05-21T06:48:49.910Z,65.20
2019-05-21T06:53:46.340Z,74.23
2019-05-21T06:58:42.267Z,78.83
2019-05-21T07:03:38.195Z,70.53
2019-05-21T07:08:43.370Z,65.47
2019-05-21T07:13:39.412Z,67.80
2019-05-21T07:18:35.325Z,67.67
2019-05-21T07:23:31.249Z,71.70
2019-05-21T07:28:27.174Z,62.10
2019-05-21T07:33:23.103Z,70.67
2019-05-21T07:38:19.908Z,75.73
2019-05-21T07:43:15.939Z,65.90
2019-05-21T07:48:11.896Z,49.17
2019-05-21T07:53:07.825Z,38.37
2019-05-21T07:58:03.856Z,73.70
2019-05-21T08:02:59.890Z,52.73
2019-05-21T08:07:55.822Z,47.20
2019-05-21T08:12:51.748Z,58.27
2019-05-21T08:17:47.789Z,47.20
2019-05-21T08:22:43.737Z,56.77
2019-05-21T08:27:39.680Z,47.33
2019-05-21T08:32:35.592Z,44.53
2019-05-21T08:37:31.553Z,50.00
2019-05-21T08:42:27.585Z,52.03
2019-05-21T08:47:23.575Z,46.50
2019-05-21T08:52:19.834Z,50.93
2019-05-21T08:57:15.937Z,39.33
2019-05-21T09:02:11.866Z,41.83
2019-05-21T09:07:07.899Z,41.63
2019-05-21T09:12:04.088Z,50.13
2019-05-21T09:17:01.667Z,44.40
2019-05-21T09:21:58.625Z,49.93
2019-05-21T09:26:56.473Z,45.53
2019-05-21T09:31:54.979Z,43.70
2019-05-21T09:36:52.374Z,60.63
2019-05-21T09:41:48.416Z,48.30
2019-05-21T09:46:44.478Z,49.10
2019-05-21T09:51:40.410Z,47.03
2019-05-21T09:56:36.844Z,40.23
2019-05-21T10:01:40.837Z,37.20
2019-05-21T10:06:36.773Z,33.57
2019-05-21T10:11:32.696Z,34.20
2019-05-21T10:16:28.627Z,39.80
2019-05-21T10:21:24.662Z,39.80
2019-05-21T10:26:20.581Z,36.83
2019-05-21T10:31:17.114Z,34.20
2019-05-21T10:36:13.145Z,31.40
2019-05-21T10:41:09.100Z,27.13
2019-05-21T10:46:05.146Z,18.93
2019-05-21T10:51:01.173Z,27.13
2019-05-21T10:55:57.202Z,20.60
2019-05-21T11:00:55.515Z,29.20
2019-05-21T11:06:08.968Z,27.00
2019-05-21T11:10:51.263Z,27.87
2019-05-21T11:15:47.246Z,25.30
2019-05-21T11:20:43.175Z,14.13
2019-05-21T11:25:39.215Z,24.37
2019-05-21T11:30:35.143Z,22.07
2019-05-21T11:35:31.269Z,31.33
2019-05-21T11:40:27.924Z,29.53
2019-05-21T11:45:32.090Z,24.63
2019-05-21T11:50:22.173Z,32.13
2019-05-21T11:55:18.099Z,34.33
2019-05-21T12:00:14.635Z,32.10
2019-05-21T12:05:10.705Z,29.77
2019-05-21T12:10:07.451Z,27.60
2019-05-21T12:15:06.740Z,22.70
2019-05-21T12:20:06.676Z,22.87
2019-05-21T12:25:03.984Z,13.73
2019-05-21T12:29:59.999Z,8.40
2019-05-21T12:34:55.962Z,16.20
2019-05-21T12:39:51.896Z,22.87
2019-05-21T12:44:47.855Z,26.50
2019-05-21T12:49:43.787Z,22.07
2019-05-21T12:54:46.540Z,18.57
2019-05-21T12:59:42.586Z,16.37
2019-05-21T13:04:38.583Z,14.70
2019-05-21T13:09:37.423Z,20.70
2019-05-21T13:14:35.178Z,20.80
2019-05-21T13:19:31.301Z,19.03
2019-05-21T13:24:28.039Z,22.57
2019-05-21T13:29:23.973Z,15.27
2019-05-21T13:34:19.927Z,27.03
2019-05-21T13:39:18.287Z,21.90
2019-05-21T13:44:14.413Z,38.90
2019-05-21T13:49:10.347Z,30.07
2019-05-21T13:54:06.373Z,34.70
2019-05-21T13:59:02.527Z,35.57
2019-05-21T14:03:58.485Z,33.00
2019-05-21T14:08:58.469Z,29.00
2019-05-21T14:13:54.514Z,18.10
2019-05-21T14:18:50.458Z,24.70
2019-05-21T14:23:46.395Z,24.43
2019-05-21T14:28:42.333Z,27.40
2019-05-21T14:33:38.391Z,29.23
2019-05-21T14:38:44.905Z,23.63
2019-05-21T14:43:40.996Z,29.77
2019-05-21T14:48:36.985Z,30.43
2019-05-21T14:53:32.917Z,28.60
2019-05-21T14:58:28.843Z,24.37
2019-05-21T15:03:25.741Z,25.50
2019-05-21T15:08:24.609Z,23.80
2019-05-21T15:13:20.654Z,28.00
2019-05-21T15:18:21.348Z,22.80
2019-05-21T15:23:14.558Z,31.30
2019-05-21T15:28:10.484Z,30.70
2019-05-21T15:33:06.620Z,27.80
2019-05-21T15:38:02.651Z,25.73
2019-05-21T15:42:58.575Z,27.00
2019-05-21T15:47:54.531Z,27.73
2019-05-21T15:52:50.454Z,30.53
2019-05-21T15:57:46.385Z,27.07
2019-05-21T16:02:42.350Z,23.77
2019-05-21T16:07:38.388Z,32.03
2019-05-21T16:12:34.316Z,22.83
2019-05-21T16:17:30.256Z,26.07
2019-05-21T16:22:26.171Z,30.93
2019-05-21T16:27:22.115Z,27.63
2019-05-21T16:32:18.043Z,27.53
2019-05-21T16:37:14.137Z,24.63
2019-05-21T16:42:10.065Z,25.27
2019-05-21T16:47:06.031Z,26.83
2019-05-21T16:52:02.051Z,24.37
2019-05-21T16:56:57.977Z,26.90
2019-05-21T17:01:53.902Z,26.57
2019-05-21T17:06:49.871Z,27.43
2019-05-21T17:11:59.171Z,28.70
2019-05-21T17:16:43.740Z,31.03
2019-05-21T17:21:39.723Z,28.50
2019-05-21T17:26:35.651Z,27.80
2019-05-21T17:31:31.649Z,27.10
2019-05-21T17:36:27.575Z,31.17
2019-05-21T17:41:23.579Z,30.87
2019-05-21T17:46:19.536Z,26.33
2019-05-21T17:51:15.466Z,31.00
2019-05-21T17:56:11.599Z,25.47
2019-05-21T18:01:09.452Z,30.30
2019-05-21T18:06:06.723Z,19.43
2019-05-21T18:11:03.092Z,32.80
2019-05-21T18:15:59.423Z,30.33
2019-05-21T18:20:55.525Z,35.67
2019-05-21T18:25:51.551Z,32.77
2019-05-21T18:30:47.777Z,35.93
2019-05-21T18:35:45.433Z,34.00
2019-05-21T18:40:41.639Z,28.60
2019-05-21T18:45:37.678Z,35.37
2019-05-21T18:50:36.608Z,36.40
2019-05-21T18:55:31.553Z,43.17
2019-05-21T19:00:27.481Z,38.00
2019-05-21T19:05:23.410Z,32.57
2019-05-21T19:10:19.340Z,28.50
2019-05-21T19:15:15.474Z,50.70
2019-05-21T19:20:12.194Z,29.33
2019-05-21T19:25:08.222Z,32.20
2019-05-21T19:30:05.353Z,18.83
2019-05-21T19:35:01.394Z,38.80
2019-05-21T19:39:57.409Z,36.27
2019-05-21T19:44:53.364Z,33.20
2019-05-21T19:49:49.286Z,38.80
2019-05-21T19:54:45.212Z,46.20
2019-05-21T19:59:41.145Z,38.80
2019-05-21T20:04:37.094Z,29.27
2019-05-21T20:09:34.702Z,26.13
2019-05-21T20:14:30.622Z,34.37
2019-05-21T20:19:27.149Z,42.93
2019-05-21T20:24:23.579Z,34.90
2019-05-21T20:29:20.022Z,27.57
2019-05-21T20:34:15.999Z,24.47
2019-05-21T20:39:14.395Z,29.87
2019-05-21T20:44:14.977Z,42.37
2019-05-21T20:49:11.405Z,39.47
2019-05-21T20:54:10.040Z,43.33
2019-05-21T20:59:06.012Z,41.10
2019-05-21T21:04:02.848Z,37.43
2019-05-21T21:09:01.847Z,44.60
2019-05-21T21:13:57.879Z,51.67
2019-05-21T21:18:54.115Z,46.57
2019-05-21T21:23:51.714Z,41.57
2019-05-21T21:28:47.768Z,37.63
2019-05-21T21:33:43.844Z,45.30
2019-05-21T21:38:41.883Z,31.57
2019-05-21T21:43:40.015Z,36.67
2019-05-21T21:48:36.749Z,41.13
2019-05-21T21:53:33.074Z,45.67
2019-05-21T21:58:29.130Z,45.10
2019-05-21T22:03:26.658Z,43.40
2019-05-21T22:08:24.066Z,48.23
2019-05-21T22:13:20.493Z,43.73
2019-05-21T22:18:17.231Z,46.37
2019-05-21T22:23:13.565Z,47.70
2019-05-21T22:28:09.598Z,34.43
2019-05-21T22:33:06.451Z,44.37
2019-05-21T22:38:02.379Z,48.53
2019-05-21T22:42:58.503Z,57.40
2019-05-21T22:47:54.559Z,58.67
2019-05-21T22:52:50.491Z,50.97
2019-05-21T22:57:46.448Z,61.93
2019-05-21T23:02:44.231Z,61.53
2019-05-21T23:07:40.161Z,56.00
2019-05-21T23:12:36.496Z,62.67
2019-05-21T23:17:32.832Z,61.50
2019-05-21T23:22:28.963Z,44.43
2019-05-21T23:27:24.989Z,61.70
2019-05-21T23:32:21.028Z,70.13
2019-05-21T23:37:18.855Z,68.47
2019-05-21T23:42:28.605Z,41.03
2019-05-21T23:47:14.763Z,76.87
2019-05-21T23:52:10.902Z,77.00
2019-05-21T23:57:08.744Z,63.83
